Jena Marie C. — WDD4969 — position and weather

sailwx.info

Track history (hours):
 
Tides and Currents Weather Stations Pressure Air Temp Water Temp Dewpoint Dewpoint Depression Visibility Wind Speed Wind Dir Waves Ship Positions

Jena Marie C.

Owner: Scott C. Marine Towing, LLC, Marrero, LA. More information available from US FCC via Universal Licensing System and Coast Guard Vessel Documentation Center.

Last reported at 2014-Oct-31 04:27 UTC. Time now 2014-Oct-31 09:17 UTC.
Position N 29°54' W 090°07'.

Length 19 m; draft 2.5 m.

Type: Towing. MMSI: 367151880.

Date/timePositionNaut miles runAvg speedWind from/ knotsBaromVisibWave heightAir tempDewpointWater temp
2014-Oct-31 04:27N 29°54' W 090°07'1 0.3
2014-Oct-31 02:33N 29°55' W 090°07'5 5.4
2014-Oct-31 01:33N 29°58' W 090°02'1 0.6
2014-Oct-31 00:31N 29°59' W 090°01'1 1.5
2014-Oct-30 23:33N 30°00' W 090°01'0 0.0
2014-Oct-30 22:32N 30°00' W 090°01'0 0.0
2014-Oct-30 21:33N 30°00' W 090°01'8 0.8
2014-Oct-30 12:33N 29°54' W 090°07'0 0.0
2014-Oct-30 11:04N 29°54' W 090°07'0 0.0
2014-Oct-30 10:26N 29°54' W 090°07'0 0.0
2014-Oct-30 09:18N 29°54' W 090°07'0 0.0
2014-Oct-30 08:20N 29°54' W 090°07'0 0.0
2014-Oct-30 07:31N 29°54' W 090°07'0 0.0
2014-Oct-30 06:28N 29°54' W 090°07'0 0.0
2014-Oct-30 05:32N 29°54' W 090°07'0 0.0
2014-Oct-30 04:32N 29°54' W 090°07'0 0.0
2014-Oct-30 03:31N 29°54' W 090°07'0 0.0
2014-Oct-30 02:21N 29°54' W 090°07'0 0.0
2014-Oct-30 01:32N 29°54' W 090°07'0 0.0
2014-Oct-30 00:08N 29°54' W 090°07'0 0.0
2014-Oct-29 23:13N 29°54' W 090°07'0 0.1
2014-Oct-29 22:18N 29°54' W 090°07'4 0.4
2014-Oct-29 11:31N 29°57' W 090°04'3 2.7
2014-Oct-29 10:32N 29°59' W 090°01'2 2.0
2014-Oct-29 09:34N 29°60' W 089°59'0 0.0
2014-Oct-29 08:34N 29°60' W 089°59'0 0.0
2014-Oct-29 07:32N 29°60' W 089°59'0 0.0
2014-Oct-29 05:28N 29°60' W 089°59'0 0.0
2014-Oct-29 04:18N 29°60' W 089°59'0 0.0
2014-Oct-29 01:32N 29°60' W 089°59'  
2014-Oct-26 12:32N 30°02' W 089°51'7 6.3
2014-Oct-26 11:26N 29°60' W 089°59'3 3.7
2014-Oct-26 10:33N 29°58' W 090°02'1 0.9
2014-Oct-26 09:33N 29°57' W 090°02'0 0.0
2014-Oct-26 08:33N 29°57' W 090°02'0 0.0
2014-Oct-26 07:33N 29°57' W 090°02'0 0.0
2014-Oct-26 06:33N 29°57' W 090°02'0 0.0
2014-Oct-26 05:22N 29°57' W 090°02'0 0.0
2014-Oct-26 04:11N 29°57' W 090°02'0 0.0
2014-Oct-25 14:19N 29°57' W 090°02'0 0.0
2014-Oct-25 13:33N 29°57' W 090°02'0 0.0
2014-Oct-25 11:18N 29°57' W 090°02'0 0.0
2014-Oct-25 10:33N 29°57' W 090°02'0 0.0
2014-Oct-25 09:31N 29°57' W 090°02'0 0.0
2014-Oct-25 08:32N 29°57' W 090°02'0 0.0
2014-Oct-25 07:33N 29°57' W 090°02'0 0.0
2014-Oct-25 06:33N 29°57' W 090°02'0 0.0
2014-Oct-25 05:16N 29°57' W 090°02'0 0.0
2014-Oct-25 04:19N 29°57' W 090°02'0 0.0
2014-Oct-25 03:13N 29°57' W 090°02'0 0.0
2014-Oct-25 00:34N 29°57' W 090°02'0 0.0
2014-Oct-24 23:32N 29°57' W 090°02'0 0.0
2014-Oct-24 22:33N 29°57' W 090°02'0 0.0
2014-Oct-24 21:32N 29°57' W 090°02'  
Track history (hours):
 
Tides and Currents Weather Stations Pressure Air Temp Water Temp Dewpoint Dewpoint Depression Visibility Wind Speed Wind Dir Waves Ship Positions

Jena Marie C.

Owner: Scott C. Marine Towing, LLC, Marrero, LA. More information available from US FCC via Universal Licensing System and Coast Guard Vessel Documentation Center.

Last reported at 2014-Oct-31 04:27 UTC. Time now 2014-Oct-31 09:17 UTC.
Position N 29°54' W 090°07'.

Length 19 m; draft 2.5 m.

Type: Towing. MMSI: 367151880.

Date/timePositionNaut miles runAvg speedWind from/ knotsBaromVisibWave heightAir tempDewpointWater temp
2014-Oct-31 04:27N 29°54' W 090°07'1 0.3
2014-Oct-31 02:33N 29°55' W 090°07'5 5.4
2014-Oct-31 01:33N 29°58' W 090°02'1 0.6
2014-Oct-31 00:31N 29°59' W 090°01'1 1.5
2014-Oct-30 23:33N 30°00' W 090°01'0 0.0
2014-Oct-30 22:32N 30°00' W 090°01'0 0.0
2014-Oct-30 21:33N 30°00' W 090°01'8 0.8
2014-Oct-30 12:33N 29°54' W 090°07'0 0.0
2014-Oct-30 11:04N 29°54' W 090°07'0 0.0
2014-Oct-30 10:26N 29°54' W 090°07'0 0.0
2014-Oct-30 09:18N 29°54' W 090°07'0 0.0
2014-Oct-30 08:20N 29°54' W 090°07'0 0.0
2014-Oct-30 07:31N 29°54' W 090°07'0 0.0
2014-Oct-30 06:28N 29°54' W 090°07'0 0.0
2014-Oct-30 05:32N 29°54' W 090°07'0 0.0
2014-Oct-30 04:32N 29°54' W 090°07'0 0.0
2014-Oct-30 03:31N 29°54' W 090°07'0 0.0
2014-Oct-30 02:21N 29°54' W 090°07'0 0.0
2014-Oct-30 01:32N 29°54' W 090°07'0 0.0
2014-Oct-30 00:08N 29°54' W 090°07'0 0.0
2014-Oct-29 23:13N 29°54' W 090°07'0 0.1
2014-Oct-29 22:18N 29°54' W 090°07'4 0.4
2014-Oct-29 11:31N 29°57' W 090°04'3 2.7
2014-Oct-29 10:32N 29°59' W 090°01'2 2.0
2014-Oct-29 09:34N 29°60' W 089°59'0 0.0
2014-Oct-29 08:34N 29°60' W 089°59'0 0.0
2014-Oct-29 07:32N 29°60' W 089°59'0 0.0
2014-Oct-29 05:28N 29°60' W 089°59'0 0.0
2014-Oct-29 04:18N 29°60' W 089°59'0 0.0
2014-Oct-29 01:32N 29°60' W 089°59'  
2014-Oct-26 12:32N 30°02' W 089°51'7 6.3
2014-Oct-26 11:26N 29°60' W 089°59'3 3.7
2014-Oct-26 10:33N 29°58' W 090°02'1 0.9
2014-Oct-26 09:33N 29°57' W 090°02'0 0.0
2014-Oct-26 08:33N 29°57' W 090°02'0 0.0
2014-Oct-26 07:33N 29°57' W 090°02'0 0.0
2014-Oct-26 06:33N 29°57' W 090°02'0 0.0
2014-Oct-26 05:22N 29°57' W 090°02'0 0.0
2014-Oct-26 04:11N 29°57' W 090°02'0 0.0
2014-Oct-25 14:19N 29°57' W 090°02'0 0.0
2014-Oct-25 13:33N 29°57' W 090°02'0 0.0
2014-Oct-25 11:18N 29°57' W 090°02'0 0.0
2014-Oct-25 10:33N 29°57' W 090°02'0 0.0
2014-Oct-25 09:31N 29°57' W 090°02'0 0.0
2014-Oct-25 08:32N 29°57' W 090°02'0 0.0
2014-Oct-25 07:33N 29°57' W 090°02'0 0.0
2014-Oct-25 06:33N 29°57' W 090°02'0 0.0
2014-Oct-25 05:16N 29°57' W 090°02'0 0.0
2014-Oct-25 04:19N 29°57' W 090°02'0 0.0
2014-Oct-25 03:13N 29°57' W 090°02'0 0.0
2014-Oct-25 00:34N 29°57' W 090°02'0 0.0
2014-Oct-24 23:32N 29°57' W 090°02'0 0.0
2014-Oct-24 22:33N 29°57' W 090°02'0 0.0
2014-Oct-24 21:32N 29°57' W 090°02'  

Dump ship's entire track history